Time;durP1;ratioP1;P1;durP2;ratioP2;P2;SDS_P1;SDS_P2;PMS_P1;PMS_P2;Temp;Humidity;BMP_temperature;BMP_pressure;BME280_temperature;BME280_humidity;BME280_pressure;Samples;Min_cycle;Max_cycle;Signal;HPM_P1;HPM_P2
2022/08/01 00:01:46;;;;;;;3.57;2.43;;;23.20;78.20;;;;;;5017249;28;20182;-89
2022/08/01 00:04:12;;;;;;;2.97;2.70;;;23.20;78.40;;;;;;5015697;28;20184;-88
2022/08/01 00:06:37;;;;;;;4.03;3.50;;;23.10;79.00;;;;;;5027800;28;20181;-87
2022/08/01 00:09:03;;;;;;;3.87;3.07;;;23.00;79.50;;;;;;5012036;28;20198;-85
2022/08/01 00:11:28;;;;;;;2.50;2.30;;;23.60;80.20;;;;;;5015449;28;20276;-86
2022/08/01 00:13:54;;;;;;;4.70;3.23;;;23.20;79.80;;;;;;5019379;28;20197;-86
2022/08/01 00:16:22;;;;;;;3.83;2.50;;;23.10;80.40;;;;;;5030336;28;20178;-87
2022/08/01 00:18:49;;;;;;;4.40;3.43;;;23.00;81.20;;;;;;5028158;28;20577;-85
2022/08/01 00:21:15;;;;;;;3.47;2.97;;;22.90;81.80;;;;;;5028644;28;20816;-84
2022/08/01 00:23:40;;;;;;;3.23;2.67;;;23.00;82.50;;;;;;5032423;28;20451;-88
2022/08/01 00:26:06;;;;;;;3.83;3.43;;;22.90;83.20;;;;;;5030773;28;20513;-87
2022/08/01 00:28:31;;;;;;;3.17;2.87;;;22.90;83.90;;;;;;5030738;28;20213;-86
2022/08/01 00:30:57;;;;;;;7.00;3.60;;;23.60;85.60;;;;;;5011770;28;20189;-87
2022/08/01 00:33:23;;;;;;;5.60;2.87;;;22.90;85.40;;;;;;5030678;28;20218;-86
2022/08/01 00:35:48;;;;;;;3.90;3.53;;;;;;;;;;5029187;28;20594;-87
2022/08/01 00:38:14;;;;;;;4.47;2.97;;;;;;;;;;5027361;28;20182;-87
2022/08/01 00:40:40;;;;;;;8.03;2.73;;;22.80;87.00;;;;;;5023961;28;20455;-87
2022/08/01 00:43:06;;;;;;;3.53;3.23;;;22.70;88.90;;;;;;5019278;28;20471;-87
2022/08/01 00:45:31;;;;;;;5.10;2.87;;;22.60;89.90;;;;;;5026719;28;21523;-88
2022/08/01 00:47:57;;;;;;;2.60;2.40;;;22.60;90.40;;;;;;5009670;28;20187;-86
2022/08/01 00:50:23;;;;;;;3.70;3.40;;;;;;;;;;5028521;28;20214;-86
2022/08/01 00:52:50;;;;;;;3.60;2.87;;;22.50;90.90;;;;;;5022504;28;20208;-87
2022/08/01 00:55:17;;;;;;;3.93;2.90;;;22.50;91.80;;;;;;5028644;28;20507;-86
2022/08/01 00:57:43;;;;;;;4.47;3.00;;;22.40;92.40;;;;;;5012141;28;20433;-87
2022/08/01 01:00:09;;;;;;;11.67;3.30;;;22.20;92.70;;;;;;5011785;28;20468;-87
2022/08/01 01:02:36;;;;;;;6.10;3.03;;;22.10;93.40;;;;;;5013742;28;20436;-88
2022/08/01 01:05:02;;;;;;;4.73;3.20;;;21.90;93.80;;;;;;5030579;28;20438;-87
2022/08/01 01:07:55;;;;;;;8.57;3.40;;;21.80;94.40;;;;;;5018023;28;20786;-86
2022/08/01 01:10:45;;;;;;;3.60;3.30;;;21.70;95.10;;;;;;5040457;28;20485;-86
2022/08/01 01:13:35;;;;;;;4.87;3.07;;;21.50;96.00;;;;;;5030691;28;20455;-86
2022/08/01 01:16:08;;;;;;;4.77;2.67;;;21.50;96.70;;;;;;5026751;28;20511;-87
2022/08/01 01:19:02;;;;;;;3.87;3.50;;;21.50;98.50;;;;;;5016675;28;21020;-87
2022/08/01 01:21:54;;;;;;;4.73;3.57;;;21.50;99.10;;;;;;5023619;28;20445;-87
2022/08/01 01:24:45;;;;;;;6.70;3.40;;;21.50;99.70;;;;;;5016432;28;20443;-87
2022/08/01 01:27:22;;;;;;;3.70;3.13;;;21.40;99.50;;;;;;5016850;28;20464;-87
2022/08/01 01:29:52;;;;;;;4.70;2.97;;;21.40;99.90;;;;;;5010578;28;20442;-87
2022/08/01 01:32:48;;;;;;;3.50;2.97;;;21.50;99.90;;;;;;5016485;28;20460;-87
2022/08/01 01:35:29;;;;;;;4.43;3.10;;;21.60;99.90;;;;;;5027323;28;20428;-88
2022/08/01 01:38:01;;;;;;;3.10;2.83;;;21.50;99.90;;;;;;5010031;28;20486;-87
2022/08/01 01:40:28;;;;;;;5.60;2.73;;;21.50;99.90;;;;;;5028962;28;20491;-86
2022/08/01 01:42:56;;;;;;;5.40;3.37;;;21.50;99.90;;;;;;5020842;28;20445;-87
2022/08/01 01:45:24;;;;;;;4.07;2.97;;;21.50;99.90;;;;;;5020091;28;20457;-88
2022/08/01 01:47:50;;;;;;;3.83;3.40;;;21.70;99.90;;;;;;5012445;28;21214;-87
2022/08/01 01:50:20;;;;;;;7.43;3.80;;;21.70;99.90;;;;;;5012655;28;20449;-86
2022/08/01 01:52:47;;;;;;;3.80;3.00;;;21.70;99.90;;;;;;5016652;28;20536;-88
2022/08/01 01:55:15;;;;;;;9.83;3.70;;;21.70;99.90;;;;;;5027403;28;20433;-88
2022/08/01 01:57:42;;;;;;;3.63;3.33;;;21.80;99.90;;;;;;5015827;28;20436;-87
2022/08/01 02:00:11;;;;;;;4.00;3.20;;;21.70;99.90;;;;;;5032137;28;20455;-84
2022/08/01 02:02:37;;;;;;;3.57;3.27;;;21.60;99.90;;;;;;5021742;28;20416;-83
2022/08/01 02:05:05;;;;;;;4.97;3.03;;;21.50;99.90;;;;;;5022007;28;20424;-83
2022/08/01 02:07:32;;;;;;;3.93;2.90;;;21.40;99.90;;;;;;5022886;28;20422;-84
2022/08/01 02:09:59;;;;;;;5.20;3.00;;;21.40;99.90;;;;;;5042932;28;20433;-82
2022/08/01 02:12:25;;;;;;;5.10;3.73;;;21.40;99.90;;;;;;5032581;28;20451;-83
2022/08/01 02:14:53;;;;;;;4.47;3.20;;;21.30;99.90;;;;;;5040397;28;20468;-82
2022/08/01 02:17:20;;;;;;;4.47;3.30;;;21.30;99.90;;;;;;5040529;28;20427;-84
2022/08/01 02:19:47;;;;;;;4.40;3.57;;;21.20;99.90;;;;;;5041360;28;20432;-84
2022/08/01 02:22:31;;;;;;;3.33;3.03;;;21.00;99.90;;;;;;5024845;28;20475;-83
2022/08/01 02:25:02;;;;;;;4.63;3.10;;;21.00;99.90;;;;;;5022404;28;20432;-85
2022/08/01 02:27:34;;;;;;;5.10;3.30;;;20.90;99.90;;;;;;5012285;28;20433;-82
2022/08/01 02:30:04;;;;;;;6.17;3.20;;;20.70;99.90;;;;;;5030490;28;20461;-82
2022/08/01 02:32:45;;;;;;;3.40;3.10;;;20.70;99.90;;;;;;5028903;28;20465;-83
2022/08/01 02:35:25;;;;;;;3.73;2.80;;;21.40;99.90;;;;;;5026864;28;20816;-83
2022/08/01 02:37:52;;;;;;;5.60;2.67;;;20.70;99.90;;;;;;5026841;28;20490;-83
2022/08/01 02:40:18;;;;;;;3.90;2.93;;;20.70;99.90;;;;;;5010164;28;20461;-81
2022/08/01 02:42:48;;;;;;;3.00;2.70;;;20.80;99.90;;;;;;5026209;28;20449;-81
2022/08/01 02:45:18;;;;;;;3.40;3.10;;;21.00;99.90;;;;;;5030738;28;20808;-83
2022/08/01 02:47:45;;;;;;;5.00;2.73;;;21.00;99.90;;;;;;5050136;28;20411;-85
2022/08/01 02:50:13;;;;;;;5.00;3.17;;;21.00;99.90;;;;;;5009297;28;20448;-83
2022/08/01 02:52:41;;;;;;;3.10;2.37;;;20.80;99.90;;;;;;5045507;28;20455;-84
2022/08/01 02:55:08;;;;;;;2.80;2.53;;;20.80;99.90;;;;;;5026589;28;20440;-83
2022/08/01 02:57:37;;;;;;;5.07;2.57;;;20.70;99.90;;;;;;5006465;28;21040;-84
2022/08/01 03:00:04;;;;;;;4.60;3.30;;;20.50;99.90;;;;;;5026182;28;20448;-86
2022/08/01 03:02:32;;;;;;;6.40;2.73;;;20.30;99.90;;;;;;5015394;28;20433;-86
2022/08/01 03:04:59;;;;;;;3.40;2.60;;;21.40;99.90;;;;;;5023318;28;20424;-87
2022/08/01 03:07:25;;;;;;;4.07;3.00;;;20.00;99.90;;;;;;5004889;28;20449;-86
2022/08/01 03:09:52;;;;;;;5.67;3.30;;;20.70;99.90;;;;;;5037710;28;20440;-87
2022/08/01 03:12:22;;;;;;;4.90;3.30;;;19.90;99.90;;;;;;5003402;28;20484;-86
2022/08/01 03:14:51;;;;;;;4.13;3.30;;;19.80;99.90;;;;;;5026318;28;20476;-86
2022/08/01 03:17:20;;;;;;;3.77;3.13;;;19.80;99.90;;;;;;5036037;28;20431;-86
2022/08/01 03:19:47;;;;;;;5.10;3.33;;;19.70;99.90;;;;;;5034173;28;20452;-86
2022/08/01 03:22:14;;;;;;;3.40;2.70;;;19.70;99.90;;;;;;5017554;28;20470;-86
2022/08/01 03:24:42;;;;;;;3.77;3.00;;;19.70;99.90;;;;;;5017280;28;20435;-86
2022/08/01 03:27:09;;;;;;;2.63;2.20;;;19.70;99.90;;;;;;5003343;28;20780;-85
2022/08/01 03:29:36;;;;;;;5.13;2.80;;;19.60;99.90;;;;;;5002805;28;20444;-85
2022/08/01 03:32:03;;;;;;;3.50;2.70;;;19.60;99.90;;;;;;5001165;28;20453;-85
2022/08/01 03:34:29;;;;;;;4.20;2.87;;;19.60;99.90;;;;;;5019100;28;20826;-84
2022/08/01 03:37:12;;;;;;;3.00;2.67;;;19.40;99.90;;;;;;5029381;28;20442;-85
2022/08/01 03:39:44;;;;;;;5.53;2.93;;;19.50;99.90;;;;;;5029125;28;20443;-85
2022/08/01 03:42:15;;;;;;;4.20;3.13;;;19.50;99.90;;;;;;5056084;28;20408;-86
2022/08/01 03:44:43;;;;;;;3.00;2.80;;;19.50;99.90;;;;;;5038654;28;20924;-86
2022/08/01 03:47:10;;;;;;;7.10;3.77;;;19.40;99.90;;;;;;5058008;28;20799;-87
2022/08/01 03:49:41;;;;;;;6.73;3.23;;;19.40;99.90;;;;;;5039424;28;20439;-85
2022/08/01 03:52:09;;;;;;;7.90;3.50;;;19.40;99.90;;;;;;5038751;28;20454;-87
2022/08/01 03:54:46;;;;;;;4.07;3.23;;;19.40;99.90;;;;;;5057768;28;20912;-87
2022/08/01 03:57:12;;;;;;;3.73;3.17;;;19.40;99.90;;;;;;5061947;28;20395;-89
2022/08/01 03:59:39;;;;;;;4.00;3.50;;;19.40;99.90;;;;;;5044029;28;20433;-87
2022/08/01 04:02:06;;;;;;;3.50;3.20;;;19.40;99.90;;;;;;5062819;28;20399;-86
2022/08/01 04:04:32;;;;;;;2.90;2.60;;;19.30;99.90;;;;;;5065033;28;20410;-86
2022/08/01 04:07:03;;;;;;;3.90;2.80;;;19.30;99.90;;;;;;5063430;28;20403;-86
2022/08/01 04:09:30;;;;;;;3.57;3.20;;;19.30;99.90;;;;;;5062502;28;20423;-85
2022/08/01 04:11:56;;;;;;;3.57;3.17;;;19.40;99.90;;;;;;5059964;28;20455;-85
2022/08/01 04:14:21;;;;;;;3.77;3.40;;;19.30;99.90;;;;;;5036644;28;20443;-84
2022/08/01 04:16:47;;;;;;;5.10;2.83;;;19.40;99.90;;;;;;5034200;28;20737;-83
2022/08/01 04:19:13;;;;;;;4.20;3.03;;;19.50;99.90;;;;;;5032419;28;20222;-84
2022/08/01 04:21:39;;;;;;;5.63;3.00;;;19.50;99.90;;;;;;5018981;28;20430;-83
2022/08/01 04:24:13;;;;;;;3.73;3.33;;;19.60;99.90;;;;;;5034265;28;20228;-84
2022/08/01 04:26:42;;;;;;;3.70;2.97;;;19.60;99.90;;;;;;5021687;28;20925;-84
2022/08/01 04:29:09;;;;;;;4.57;3.00;;;19.80;99.90;;;;;;5036515;28;20506;-84
2022/08/01 04:31:36;;;;;;;3.50;2.67;;;20.00;99.90;;;;;;5036410;28;20423;-84
2022/08/01 04:34:05;;;;;;;3.70;3.10;;;20.20;99.90;;;;;;5024945;28;20425;-85
2022/08/01 04:36:33;;;;;;;5.70;2.57;;;20.40;99.90;;;;;;5037558;28;20799;-84
2022/08/01 04:39:01;;;;;;;4.97;3.33;;;21.60;99.90;;;;;;5032702;28;20856;-85
2022/08/01 04:41:27;;;;;;;4.83;2.57;;;21.60;99.90;;;;;;5028117;28;20500;-85
2022/08/01 04:43:54;;;;;;;5.13;2.70;;;23.30;99.90;;;;;;5027697;28;20443;-86
2022/08/01 04:46:21;;;;;;;2.73;2.43;;;24.20;99.90;;;;;;5029278;28;20469;-85
2022/08/01 04:48:48;;;;;;;4.90;2.37;;;24.30;99.90;;;;;;5028110;28;20492;-85
2022/08/01 04:51:15;;;;;;;3.83;1.97;;;24.20;99.90;;;;;;5029185;28;20836;-85
2022/08/01 04:53:41;;;;;;;2.60;2.10;;;26.00;99.90;;;;;;5025363;28;20491;-85
2022/08/01 04:56:07;;;;;;;4.60;2.30;;;27.50;99.90;;;;;;5027116;28;20466;-84
2022/08/01 04:58:33;;;;;;;5.20;2.70;;;29.70;96.70;;;;;;5024837;28;20452;-86
2022/08/01 05:00:58;;;;;;;4.43;2.93;;;29.70;96.90;;;;;;5031172;28;20203;-85
2022/08/01 05:03:24;;;;;;;2.83;2.40;;;31.20;93.00;;;;;;5035420;28;20190;-84
2022/08/01 05:05:49;;;;;;;3.83;2.47;;;32.00;86.60;;;;;;5016054;28;20185;-83
2022/08/01 05:08:16;;;;;;;2.70;2.50;;;32.80;82.80;;;;;;5024765;28;20652;-79
2022/08/01 05:10:41;;;;;;;2.87;2.53;;;32.80;77.50;;;;;;5030415;28;20198;-82
2022/08/01 05:13:08;;;;;;;2.20;2.00;;;;;;;;;;5029083;28;21552;-83
2022/08/01 05:15:36;;;;;;;2.70;2.50;;;32.90;75.20;;;;;;5012733;28;20196;-83
2022/08/01 05:18:02;;;;;;;2.73;2.40;;;33.20;73.00;;;;;;5030941;28;21485;-81
2022/08/01 05:20:27;;;;;;;2.70;2.50;;;32.90;71.30;;;;;;5025588;28;20465;-82
2022/08/01 05:22:53;;;;;;;3.50;2.97;;;30.90;73.30;;;;;;5028605;28;20243;-82
2022/08/01 05:25:18;;;;;;;5.10;2.90;;;29.60;78.00;;;;;;5026901;28;20976;-79
2022/08/01 05:27:44;;;;;;;3.17;2.87;;;27.90;84.40;;;;;;5008344;28;20211;-80
2022/08/01 05:30:10;;;;;;;2.40;2.07;;;26.80;90.60;;;;;;5027727;28;20198;-79
2022/08/01 05:32:36;;;;;;;2.37;2.10;;;27.60;91.50;;;;;;5027613;28;20209;-79
2022/08/01 05:35:02;;;;;;;7.00;2.67;;;27.20;91.10;;;;;;5028518;28;20217;-79
2022/08/01 05:37:28;;;;;;;9.10;2.60;;;26.90;92.20;;;;;;5023720;28;20442;-78
2022/08/01 05:39:54;;;;;;;3.80;2.30;;;26.70;93.40;;;;;;5022762;28;20597;-79
2022/08/01 05:42:20;;;;;;;3.00;2.70;;;28.00;93.30;;;;;;5021718;28;20227;-82
2022/08/01 05:44:47;;;;;;;6.93;2.70;;;29.40;90.40;;;;;;5019893;28;20231;-80
2022/08/01 05:47:13;;;;;;;4.40;2.30;;;30.70;89.90;;;;;;5024734;28;21540;-81
2022/08/01 05:49:39;;;;;;;3.73;2.30;;;32.70;80.90;;;;;;5024902;28;20495;-80
2022/08/01 05:52:05;;;;;;;4.60;2.67;;;32.50;75.80;;;;;;5024795;28;21318;-80
2022/08/01 05:54:30;;;;;;;5.23;2.03;;;30.00;78.20;;;;;;5023402;28;20242;-80
2022/08/01 05:56:59;;;;;;;5.67;2.83;;;30.20;83.90;;;;;;5026287;28;20290;-80
2022/08/01 05:59:25;;;;;;;5.97;1.87;;;29.00;81.60;;;;;;5006000;28;20959;-79
2022/08/01 06:01:50;;;;;;;3.23;2.00;;;28.60;85.70;;;;;;5025518;28;20964;-79
2022/08/01 06:04:16;;;;;;;3.60;2.10;;;28.70;86.60;;;;;;5024404;28;20523;-79
2022/08/01 06:06:41;;;;;;;2.57;1.97;;;28.20;88.90;;;;;;5029307;28;20199;-80
2022/08/01 06:09:07;;;;;;;3.67;1.93;;;28.80;88.80;;;;;;5023988;28;20232;-79
2022/08/01 06:11:32;;;;;;;2.70;2.17;;;29.20;87.30;;;;;;5028199;28;20199;-78
2022/08/01 06:13:58;;;;;;;2.57;2.37;;;28.60;86.10;;;;;;5024748;28;20173;-80
2022/08/01 06:16:24;;;;;;;3.50;2.47;;;28.50;86.80;;;;;;5022256;28;20186;-81
2022/08/01 06:18:49;;;;;;;3.67;2.57;;;28.40;87.70;;;;;;5023666;28;20210;-79
2022/08/01 06:21:15;;;;;;;3.10;2.07;;;29.20;87.10;;;;;;5010268;28;20173;-79
2022/08/01 06:23:42;;;;;;;2.60;1.97;;;29.90;83.60;;;;;;5024923;28;20190;-79
2022/08/01 06:26:07;;;;;;;4.03;2.60;;;30.70;83.60;;;;;;5024912;28;20670;-79
2022/08/01 06:28:33;;;;;;;3.40;2.60;;;31.70;74.20;;;;;;5027322;28;20553;-80
2022/08/01 06:30:59;;;;;;;2.50;2.30;;;31.30;74.80;;;;;;5027361;28;20443;-80
2022/08/01 06:33:25;;;;;;;3.33;2.27;;;32.20;76.10;;;;;;5028119;28;20213;-81
2022/08/01 06:35:51;;;;;;;2.60;2.40;;;31.30;75.90;;;;;;5027662;28;20265;-81
2022/08/01 06:38:16;;;;;;;4.97;2.80;;;32.20;78.50;;;;;;5029267;28;20456;-81
2022/08/01 06:40:42;;;;;;;2.03;1.93;;;31.90;73.50;;;;;;5028316;28;20195;-81
2022/08/01 06:43:08;;;;;;;3.43;2.10;;;31.50;76.20;;;;;;5026161;28;20580;-80
2022/08/01 06:45:34;;;;;;;4.20;2.77;;;31.70;75.30;;;;;;5027169;28;20239;-79
2022/08/01 06:47:59;;;;;;;3.60;2.97;;;32.50;72.80;;;;;;5024738;28;20194;-80
2022/08/01 06:50:25;;;;;;;2.90;2.43;;;31.60;72.00;;;;;;5027212;28;20223;-79
2022/08/01 06:52:50;;;;;;;4.43;2.57;;;30.70;76.20;;;;;;5012475;28;20202;-81
2022/08/01 06:55:16;;;;;;;3.90;2.63;;;31.00;74.20;;;;;;5023670;28;20182;-81
2022/08/01 06:57:50;;;;;;;3.70;2.60;;;31.50;74.30;;;;;;5026652;28;20199;-80
2022/08/01 07:00:20;;;;;;;5.50;2.43;;;30.80;75.10;;;;;;5026806;28;20235;-80
2022/08/01 07:02:47;;;;;;;2.70;2.50;;;29.80;77.70;;;;;;5030438;28;20471;-81
2022/08/01 07:05:13;;;;;;;4.67;2.40;;;29.80;79.80;;;;;;5029782;28;20527;-79
2022/08/01 07:07:38;;;;;;;3.67;2.77;;;30.20;78.90;;;;;;5036848;28;20525;-79
2022/08/01 07:10:04;;;;;;;2.97;2.67;;;30.10;80.80;;;;;;5036374;28;20205;-80
2022/08/01 07:12:30;;;;;;;3.70;2.40;;;31.30;77.10;;;;;;5023708;28;20727;-80
2022/08/01 07:14:56;;;;;;;2.77;2.47;;;31.50;75.30;;;;;;5021378;28;20452;-79
2022/08/01 07:17:21;;;;;;;3.37;2.10;;;30.60;75.90;;;;;;5027801;28;22530;-80
2022/08/01 07:19:47;;;;;;;2.10;1.90;;;31.20;76.00;;;;;;5024254;28;20201;-80
2022/08/01 07:22:14;;;;;;;2.60;2.10;;;29.80;77.60;;;;;;5023828;28;20181;-80
2022/08/01 07:24:39;;;;;;;3.77;2.30;;;29.70;80.90;;;;;;5024577;28;20432;-79
2022/08/01 07:27:05;;;;;;;8.83;3.90;;;29.10;81.00;;;;;;5024439;28;20444;-79
2022/08/01 07:29:31;;;;;;;7.33;3.60;;;30.50;79.40;;;;;;5028675;28;20205;-80
2022/08/01 07:31:57;;;;;;;3.40;3.10;;;31.50;75.50;;;;;;5032807;28;20293;-81
2022/08/01 07:34:24;;;;;;;3.40;2.60;;;32.60;74.40;;;;;;5029662;28;20173;-82
2022/08/01 07:36:51;;;;;;;6.87;3.20;;;32.90;68.90;;;;;;5030124;28;20471;-82
2022/08/01 07:39:16;;;;;;;3.40;3.10;;;32.60;70.30;;;;;;5029260;28;20506;-82
2022/08/01 07:41:42;;;;;;;4.03;3.23;;;34.60;68.40;;;;;;5029930;28;20421;-81
2022/08/01 07:44:08;;;;;;;3.33;3.03;;;34.20;63.70;;;;;;5029773;28;20182;-79
2022/08/01 07:46:33;;;;;;;2.97;2.77;;;32.10;63.90;;;;;;5029934;28;20658;-81
2022/08/01 07:48:59;;;;;;;2.60;2.40;;;31.30;69.30;;;;;;5032884;28;20220;-81
2022/08/01 07:51:24;;;;;;;3.47;3.20;;;31.80;69.00;;;;;;5030823;28;20631;-81
2022/08/01 07:53:50;;;;;;;3.53;2.57;;;33.00;69.00;;;;;;5037895;28;20243;-80
2022/08/01 07:56:16;;;;;;;3.10;2.80;;;33.20;65.40;;;;;;5034263;28;20181;-82
2022/08/01 07:58:41;;;;;;;3.30;3.10;;;32.40;68.30;;;;;;5034818;28;20672;-80
2022/08/01 08:01:07;;;;;;;13.80;3.57;;;32.70;68.50;;;;;;5017805;28;20419;-83
2022/08/01 08:03:32;;;;;;;4.43;3.07;;;33.20;64.80;;;;;;5021272;28;20224;-83
2022/08/01 08:05:58;;;;;;;3.20;2.90;;;33.10;63.80;;;;;;5021625;28;20733;-85
2022/08/01 08:08:23;;;;;;;3.07;2.87;;;32.30;65.50;;;;;;5021216;28;20193;-84
2022/08/01 08:10:49;;;;;;;3.20;3.00;;;33.20;66.70;;;;;;5019735;28;20709;-84
2022/08/01 08:13:15;;;;;;;3.80;3.40;;;32.50;65.90;;;;;;5017136;28;21258;-84
2022/08/01 08:15:40;;;;;;;2.67;2.47;;;34.00;64.60;;;;;;5022055;28;20203;-84
2022/08/01 08:18:06;;;;;;;5.57;3.17;;;34.10;62.20;;;;;;5020638;28;20202;-83
2022/08/01 08:20:32;;;;;;;3.83;2.60;;;32.00;65.50;;;;;;5019041;28;20215;-83
2022/08/01 08:22:58;;;;;;;3.13;2.80;;;31.00;68.70;;;;;;5019661;28;20429;-83
2022/08/01 08:25:25;;;;;;;2.30;2.10;;;30.40;68.90;;;;;;5019093;28;20210;-84
2022/08/01 08:27:51;;;;;;;2.60;2.30;;;29.10;73.10;;;;;;5016368;28;22101;-83
2022/08/01 08:30:17;;;;;;;3.03;2.80;;;29.70;76.20;;;;;;5016295;28;20987;-83
2022/08/01 08:32:42;;;;;;;3.87;2.80;;;30.10;74.90;;;;;;5017467;28;20468;-82
2022/08/01 08:35:08;;;;;;;4.03;3.00;;;30.30;72.30;;;;;;5021335;28;20177;-83
2022/08/01 08:37:35;;;;;;;2.80;2.40;;;29.50;73.10;;;;;;5015880;28;20844;-83
2022/08/01 08:40:02;;;;;;;2.93;2.73;;;29.50;77.20;;;;;;5016713;28;20449;-83
2022/08/01 08:42:27;;;;;;;3.70;2.73;;;30.30;76.90;;;;;;5020701;28;20447;-83
2022/08/01 08:44:55;;;;;;;3.80;3.10;;;31.50;72.30;;;;;;5005842;28;20441;-83
2022/08/01 08:47:23;;;;;;;4.90;2.83;;;32.50;70.30;;;;;;5017066;28;20202;-83
2022/08/01 08:49:51;;;;;;;5.00;3.57;;;33.40;67.50;;;;;;5019662;28;20539;-82
2022/08/01 08:52:21;;;;;;;7.50;3.20;;;31.10;68.00;;;;;;5004271;28;20577;-82
2022/08/01 08:54:49;;;;;;;3.97;3.37;;;31.60;71.80;;;;;;5017826;28;20448;-83
2022/08/01 08:57:15;;;;;;;4.70;3.53;;;31.20;71.50;;;;;;5017016;28;21361;-83
2022/08/01 08:59:42;;;;;;;4.03;3.50;;;31.10;71.90;;;;;;5017665;28;20451;-82
2022/08/01 09:02:09;;;;;;;3.93;3.40;;;32.20;70.70;;;;;;5015979;28;20440;-83
2022/08/01 09:04:37;;;;;;;3.70;3.40;;;35.00;65.40;;;;;;5016980;28;20478;-83
2022/08/01 09:07:05;;;;;;;4.57;4.17;;;34.80;62.10;;;;;;5019942;28;20429;-83
2022/08/01 09:09:31;;;;;;;4.20;3.90;;;;;;;;;;5014533;28;20444;-84
2022/08/01 09:11:57;;;;;;;4.70;4.40;;;34.00;60.30;;;;;;5019927;28;20439;-83
2022/08/01 09:14:25;;;;;;;4.13;3.50;;;31.90;65.50;;;;;;5017843;28;20456;-83
2022/08/01 09:17:06;;;;;;;5.17;3.70;;;31.60;67.70;;;;;;5017727;28;20437;-84
2022/08/01 09:19:36;;;;;;;4.30;3.90;;;31.40;68.50;;;;;;5020201;28;20467;-84
2022/08/01 09:22:04;;;;;;;5.70;3.70;;;32.60;67.10;;;;;;5019164;28;20459;-84
2022/08/01 09:24:31;;;;;;;3.60;3.30;;;31.30;67.20;;;;;;5019040;28;20448;-83
2022/08/01 09:26:58;;;;;;;3.87;3.43;;;29.70;69.70;;;;;;5020385;28;20531;-84
2022/08/01 09:29:26;;;;;;;5.80;3.20;;;29.90;73.10;;;;;;5012103;28;20461;-83
2022/08/01 09:31:52;;;;;;;11.97;3.33;;;31.30;71.50;;;;;;5019318;28;20439;-80
2022/08/01 09:34:26;;;;;;;3.03;2.73;;;30.30;71.50;;;;;;5021530;28;21442;-83
2022/08/01 09:36:57;;;;;;;5.30;2.93;;;30.70;70.40;;;;;;5022373;28;21063;-83
2022/08/01 09:39:26;;;;;;;4.03;3.73;;;30.70;71.20;;;;;;5021800;28;20458;-83
2022/08/01 09:41:55;;;;;;;3.37;3.00;;;31.10;72.30;;;;;;5018846;28;20812;-83
2022/08/01 09:44:37;;;;;;;4.03;3.33;;;30.40;70.40;;;;;;5014907;28;20430;-83
2022/08/01 09:47:02;;;;;;;4.83;2.93;;;30.30;70.80;;;;;;5023343;28;20512;-83
2022/08/01 09:49:34;;;;;;;3.00;2.80;;;31.40;71.60;;;;;;5019114;28;20553;-83
2022/08/01 09:52:12;;;;;;;3.20;3.00;;;32.60;69.70;;;;;;5010059;28;20184;-83
2022/08/01 09:54:38;;;;;;;3.10;2.80;;;31.90;68.30;;;;;;5019986;28;20516;-83
2022/08/01 09:57:18;;;;;;;3.43;3.23;;;32.50;68.50;;;;;;5018610;28;21069;-83
2022/08/01 09:59:47;;;;;;;3.83;3.17;;;32.40;64.40;;;;;;5017494;28;20570;-83
2022/08/01 10:02:33;;;;;;;3.60;3.40;;;31.70;66.60;;;;;;5020337;28;20468;-83
2022/08/01 10:05:00;;;;;;;3.43;3.00;;;31.00;67.80;;;;;;5021380;28;21807;-83
2022/08/01 10:07:26;;;;;;;4.37;3.10;;;29.40;70.50;;;;;;5019589;28;20441;-83
2022/08/01 10:09:51;;;;;;;4.13;2.90;;;28.90;73.30;;;;;;5020387;28;20862;-82
2022/08/01 10:12:19;;;;;;;2.87;2.60;;;28.70;74.90;;;;;;5017609;28;20500;-83
2022/08/01 10:14:47;;;;;;;2.40;2.20;;;27.60;76.00;;;;;;5017980;28;20183;-83
2022/08/01 10:17:14;;;;;;;3.23;2.97;;;27.60;80.60;;;;;;5021536;28;20841;-82
2022/08/01 10:19:41;;;;;;;6.03;3.70;;;28.00;78.90;;;;;;5020302;28;20455;-83
2022/08/01 10:22:17;;;;;;;2.80;2.50;;;27.40;79.70;;;;;;5018948;28;20455;-82
2022/08/01 10:24:46;;;;;;;2.63;2.43;;;27.50;80.40;;;;;;5019205;28;20424;-83
2022/08/01 10:27:14;;;;;;;2.60;2.27;;;27.20;83.40;;;;;;5017558;28;20436;-82
2022/08/01 10:29:45;;;;;;;3.53;2.40;;;27.40;84.00;;;;;;5019272;28;20467;-83
2022/08/01 10:32:11;;;;;;;3.63;2.43;;;27.40;84.80;;;;;;5019578;28;20465;-83
2022/08/01 10:34:37;;;;;;;4.90;2.67;;;28.60;82.60;;;;;;5019801;28;20448;-83
2022/08/01 10:37:05;;;;;;;3.00;2.30;;;29.10;79.80;;;;;;5022049;28;20261;-82
2022/08/01 10:39:32;;;;;;;2.40;2.20;;;29.30;76.20;;;;;;5019331;28;20469;-82
2022/08/01 10:41:58;;;;;;;2.63;2.43;;;29.00;78.30;;;;;;5018536;28;20446;-82
2022/08/01 10:44:29;;;;;;;4.40;2.60;;;28.30;79.10;;;;;;5020190;28;20455;-84
2022/08/01 10:47:02;;;;;;;3.20;2.87;;;27.20;81.90;;;;;;5019165;28;20937;-82
2022/08/01 10:49:30;;;;;;;2.53;2.33;;;27.00;85.00;;;;;;5017653;28;20458;-82
2022/08/01 10:51:56;;;;;;;3.10;2.17;;;27.20;86.80;;;;;;5018834;28;20421;-82
2022/08/01 10:54:25;;;;;;;6.93;2.20;;;27.40;85.30;;;;;;5019704;28;21034;-81
2022/08/01 10:56:52;;;;;;;5.00;2.40;;;27.70;86.40;;;;;;5017936;28;20192;-82
2022/08/01 10:59:23;;;;;;;2.43;2.23;;;28.10;85.70;;;;;;5017843;28;22731;-82
2022/08/01 11:02:05;;;;;;;3.33;1.83;;;28.40;83.60;;;;;;5017569;28;20444;-82
2022/08/01 11:04:54;;;;;;;3.17;2.20;;;28.20;83.90;;;;;;5017845;28;21015;-82
2022/08/01 11:07:53;;;;;;;4.57;2.10;;;28.30;83.80;;;;;;5015312;28;20523;-82
2022/08/01 11:10:37;;;;;;;7.60;2.00;;;28.70;81.60;;;;;;5018359;28;20560;-81
2022/08/01 11:13:05;;;;;;;2.60;2.40;;;28.00;82.60;;;;;;5015812;28;20459;-83
2022/08/01 11:15:31;;;;;;;2.47;2.27;;;28.30;82.00;;;;;;5018313;28;20492;-81
2022/08/01 11:17:58;;;;;;;3.53;2.30;;;28.60;82.90;;;;;;5020227;28;20533;-82
2022/08/01 11:20:35;;;;;;;4.40;1.87;;;28.50;83.00;;;;;;5016842;28;20237;-81
2022/08/01 11:23:00;;;;;;;4.10;2.83;;;28.50;81.70;;;;;;5020595;28;20458;-81
2022/08/01 11:25:36;;;;;;;2.40;2.17;;;28.40;82.40;;;;;;5020662;28;20871;-83
2022/08/01 11:28:14;;;;;;;2.73;2.43;;;28.00;84.10;;;;;;5020200;28;20301;-84
2022/08/01 11:30:47;;;;;;;3.23;2.33;;;28.50;82.00;;;;;;5018536;28;20510;-83
2022/08/01 11:33:15;;;;;;;3.20;2.33;;;28.80;80.70;;;;;;5020033;28;20460;-83
2022/08/01 11:36:12;;;;;;;2.80;2.60;;;28.40;81.00;;;;;;5019887;28;20437;-83
2022/08/01 11:38:49;;;;;;;3.97;2.40;;;29.20;81.20;;;;;;5019564;28;20433;-83
2022/08/01 11:41:23;;;;;;;4.90;2.53;;;29.20;81.20;;;;;;5021505;28;21360;-82
2022/08/01 11:44:14;;;;;;;3.10;2.43;;;29.60;80.10;;;;;;5016572;28;21581;-83
2022/08/01 11:46:52;;;;;;;3.17;2.60;;;30.10;76.70;;;;;;5023734;28;20497;-84
2022/08/01 11:49:31;;;;;;;4.10;2.43;;;30.10;73.80;;;;;;5021251;28;20904;-83
2022/08/01 11:51:58;;;;;;;2.80;2.50;;;29.20;74.40;;;;;;5020997;28;20425;-83
2022/08/01 11:54:28;;;;;;;2.93;2.60;;;29.10;76.90;;;;;;5018242;28;20969;-83
2022/08/01 11:56:59;;;;;;;2.80;2.60;;;29.50;76.60;;;;;;5012454;28;20437;-83
2022/08/01 11:59:25;;;;;;;2.40;2.20;;;29.20;76.50;;;;;;5019529;28;20483;-83
2022/08/01 12:01:51;;;;;;;2.97;2.20;;;29.50;77.50;;;;;;5016589;28;20436;-83
2022/08/01 12:04:16;;;;;;;3.00;2.70;;;29.60;78.10;;;;;;5023625;28;20432;-83
2022/08/01 12:06:42;;;;;;;2.97;2.73;;;29.60;78.10;;;;;;5023235;28;20187;-83
2022/08/01 12:09:21;;;;;;;2.97;2.57;;;29.70;76.60;;;;;;5021549;28;20224;-84
2022/08/01 12:11:48;;;;;;;4.17;2.10;;;29.40;76.80;;;;;;5022077;28;20178;-83
2022/08/01 12:14:21;;;;;;;4.00;3.03;;;29.70;77.50;;;;;;5020685;28;20990;-83
2022/08/01 12:16:53;;;;;;;2.60;2.23;;;29.50;76.70;;;;;;5022902;28;20475;-84
2022/08/01 12:19:23;;;;;;;3.37;2.27;;;28.90;77.50;;;;;;5025086;28;20464;-83
2022/08/01 12:22:08;;;;;;;3.03;2.33;;;28.60;79.90;;;;;;5023576;28;20470;-83
2022/08/01 12:24:35;;;;;;;2.70;2.40;;;28.30;80.10;;;;;;5009109;28;20524;-83
2022/08/01 12:27:01;;;;;;;2.83;2.30;;;28.30;80.90;;;;;;5018745;28;20460;-82
2022/08/01 12:29:36;;;;;;;2.90;2.30;;;28.60;81.70;;;;;;5016430;28;20489;-83
2022/08/01 12:32:02;;;;;;;2.20;1.80;;;28.50;82.30;;;;;;5021494;28;20443;-82
2022/08/01 12:34:29;;;;;;;4.67;2.40;;;29.00;81.20;;;;;;5022495;28;20443;-82
2022/08/01 12:36:56;;;;;;;3.67;2.40;;;28.80;79.60;;;;;;5020632;28;20429;-82
2022/08/01 12:39:22;;;;;;;2.87;2.47;;;28.50;81.30;;;;;;5018099;28;21012;-82
2022/08/01 12:41:48;;;;;;;6.43;1.73;;;28.00;80.80;;;;;;5003752;28;20451;-82
2022/08/01 12:44:14;;;;;;;2.60;2.13;;;28.30;82.10;;;;;;5018592;28;20195;-82
2022/08/01 12:46:41;;;;;;;2.90;2.53;;;28.50;81.20;;;;;;5019637;28;20449;-83
2022/08/01 12:49:07;;;;;;;2.40;2.30;;;28.80;81.30;;;;;;5019010;28;20521;-83
2022/08/01 12:51:33;;;;;;;2.00;1.90;;;29.00;80.30;;;;;;5018704;28;20586;-83
2022/08/01 12:53:59;;;;;;;2.50;2.03;;;29.30;79.00;;;;;;5020911;28;20482;-83
2022/08/01 12:56:34;;;;;;;2.33;2.13;;;29.50;78.20;;;;;;5019790;28;20461;-82